sensor_id;sensor_type;location;lat;lon;timestamp;temperature;humidity
11838;DHT22;5978;51.020;6.764;2023-04-10T00:01:39;8.90;99.90
11838;DHT22;5978;51.020;6.764;2023-04-10T00:04:05;8.90;99.90
11838;DHT22;5978;51.020;6.764;2023-04-10T00:06:31;8.90;99.90
11838;DHT22;5978;51.020;6.764;2023-04-10T00:08:58;8.90;99.90
11838;DHT22;5978;51.020;6.764;2023-04-10T00:11:25;8.80;99.90
11838;DHT22;5978;51.020;6.764;2023-04-10T00:13:51;8.80;99.90
11838;DHT22;5978;51.020;6.764;2023-04-10T00:16:17;8.70;99.90
11838;DHT22;5978;51.020;6.764;2023-04-10T00:18:42;8.70;99.90
11838;DHT22;5978;51.020;6.764;2023-04-10T00:21:08;8.70;99.90
11838;DHT22;5978;51.020;6.764;2023-04-10T00:23:34;8.70;99.90
11838;DHT22;5978;51.020;6.764;2023-04-10T00:26:00;8.60;99.90
11838;DHT22;5978;51.020;6.764;2023-04-10T00:28:26;8.60;99.90
11838;DHT22;5978;51.020;6.764;2023-04-10T00:30:52;8.50;99.90
11838;DHT22;5978;51.020;6.764;2023-04-10T00:33:18;8.40;99.90
11838;DHT22;5978;51.020;6.764;2023-04-10T00:35:44;8.40;99.90
11838;DHT22;5978;51.020;6.764;2023-04-10T00:38:09;8.40;99.90
11838;DHT22;5978;51.020;6.764;2023-04-10T00:40:36;8.40;99.90
11838;DHT22;5978;51.020;6.764;2023-04-10T00:43:02;8.30;99.90
11838;DHT22;5978;51.020;6.764;2023-04-10T00:45:28;8.40;99.90
11838;DHT22;5978;51.020;6.764;2023-04-10T00:47:54;8.40;99.90
11838;DHT22;5978;51.020;6.764;2023-04-10T00:50:20;8.40;99.90
11838;DHT22;5978;51.020;6.764;2023-04-10T00:52:47;8.40;99.90
11838;DHT22;5978;51.020;6.764;2023-04-10T00:55:13;8.40;99.90
11838;DHT22;5978;51.020;6.764;2023-04-10T00:57:43;8.40;99.90
11838;DHT22;5978;51.020;6.764;2023-04-10T01:00:11;8.40;99.90
11838;DHT22;5978;51.020;6.764;2023-04-10T01:02:37;8.40;99.90
11838;DHT22;5978;51.020;6.764;2023-04-10T01:05:03;8.40;99.90
11838;DHT22;5978;51.020;6.764;2023-04-10T01:15:01;8.30;99.90
11838;DHT22;5978;51.020;6.764;2023-04-10T01:20:18;8.30;99.90
11838;DHT22;5978;51.020;6.764;2023-04-10T01:25:43;8.20;99.90
11838;DHT22;5978;51.020;6.764;2023-04-10T01:28:40;8.00;99.90
11838;DHT22;5978;51.020;6.764;2023-04-10T01:31:10;7.90;99.90
11838;DHT22;5978;51.020;6.764;2023-04-10T01:33:42;7.90;99.90
11838;DHT22;5978;51.020;6.764;2023-04-10T01:36:12;7.80;99.90
11838;DHT22;5978;51.020;6.764;2023-04-10T01:38:42;7.90;99.90
11838;DHT22;5978;51.020;6.764;2023-04-10T01:41:08;7.90;99.90
11838;DHT22;5978;51.020;6.764;2023-04-10T01:43:35;8.00;99.90
11838;DHT22;5978;51.020;6.764;2023-04-10T01:46:02;7.90;99.90
11838;DHT22;5978;51.020;6.764;2023-04-10T01:48:29;7.90;99.90
11838;DHT22;5978;51.020;6.764;2023-04-10T01:50:55;7.80;99.90
11838;DHT22;5978;51.020;6.764;2023-04-10T01:53:22;7.80;99.90
11838;DHT22;5978;51.020;6.764;2023-04-10T01:55:49;7.70;99.90
11838;DHT22;5978;51.020;6.764;2023-04-10T01:58:16;7.70;99.90
11838;DHT22;5978;51.020;6.764;2023-04-10T02:00:42;7.70;99.90
11838;DHT22;5978;51.020;6.764;2023-04-10T02:03:09;7.60;99.90
11838;DHT22;5978;51.020;6.764;2023-04-10T02:05:54;7.60;99.90
11838;DHT22;5978;51.020;6.764;2023-04-10T02:08:30;7.60;99.90
11838;DHT22;5978;51.020;6.764;2023-04-10T02:11:06;7.60;99.90
11838;DHT22;5978;51.020;6.764;2023-04-10T02:13:37;7.60;99.90
11838;DHT22;5978;51.020;6.764;2023-04-10T02:16:06;7.50;99.90
11838;DHT22;5978;51.020;6.764;2023-04-10T02:18:34;7.60;99.90
11838;DHT22;5978;51.020;6.764;2023-04-10T02:21:01;7.60;99.90
11838;DHT22;5978;51.020;6.764;2023-04-10T02:23:28;7.50;99.90
11838;DHT22;5978;51.020;6.764;2023-04-10T02:25:54;7.50;99.90
11838;DHT22;5978;51.020;6.764;2023-04-10T02:28:23;7.40;99.90
11838;DHT22;5978;51.020;6.764;2023-04-10T02:30:48;7.40;99.90
11838;DHT22;5978;51.020;6.764;2023-04-10T02:33:14;7.40;99.90
11838;DHT22;5978;51.020;6.764;2023-04-10T02:35:40;7.40;99.90
11838;DHT22;5978;51.020;6.764;2023-04-10T02:38:06;7.50;99.90
11838;DHT22;5978;51.020;6.764;2023-04-10T02:40:32;7.40;99.90
11838;DHT22;5978;51.020;6.764;2023-04-10T02:42:58;7.50;99.90
11838;DHT22;5978;51.020;6.764;2023-04-10T02:45:23;7.50;99.90
11838;DHT22;5978;51.020;6.764;2023-04-10T02:47:49;7.40;99.90
11838;DHT22;5978;51.020;6.764;2023-04-10T02:50:15;7.40;99.90
11838;DHT22;5978;51.020;6.764;2023-04-10T02:52:42;7.40;99.90
11838;DHT22;5978;51.020;6.764;2023-04-10T02:55:09;7.40;99.90
11838;DHT22;5978;51.020;6.764;2023-04-10T02:57:34;7.30;99.90
11838;DHT22;5978;51.020;6.764;2023-04-10T03:00:00;7.30;99.90
11838;DHT22;5978;51.020;6.764;2023-04-10T03:02:27;7.40;99.90
11838;DHT22;5978;51.020;6.764;2023-04-10T03:04:53;7.30;99.90
11838;DHT22;5978;51.020;6.764;2023-04-10T03:07:18;7.30;99.90
11838;DHT22;5978;51.020;6.764;2023-04-10T03:09:44;7.30;99.90
11838;DHT22;5978;51.020;6.764;2023-04-10T03:12:10;7.20;99.90
11838;DHT22;5978;51.020;6.764;2023-04-10T03:14:35;7.20;99.90
11838;DHT22;5978;51.020;6.764;2023-04-10T03:17:01;7.20;99.90
11838;DHT22;5978;51.020;6.764;2023-04-10T03:19:27;7.10;99.90
11838;DHT22;5978;51.020;6.764;2023-04-10T03:21:52;7.00;99.90
11838;DHT22;5978;51.020;6.764;2023-04-10T03:24:18;7.00;99.90
11838;DHT22;5978;51.020;6.764;2023-04-10T03:26:44;6.90;99.90
11838;DHT22;5978;51.020;6.764;2023-04-10T03:29:09;6.80;99.90
11838;DHT22;5978;51.020;6.764;2023-04-10T03:31:35;6.70;99.90
11838;DHT22;5978;51.020;6.764;2023-04-10T03:34:01;6.70;99.90
11838;DHT22;5978;51.020;6.764;2023-04-10T03:36:27;6.70;99.90
11838;DHT22;5978;51.020;6.764;2023-04-10T03:38:53;6.70;99.90
11838;DHT22;5978;51.020;6.764;2023-04-10T03:41:18;6.70;99.90
11838;DHT22;5978;51.020;6.764;2023-04-10T03:43:44;6.70;99.90
11838;DHT22;5978;51.020;6.764;2023-04-10T03:46:10;6.70;99.90
11838;DHT22;5978;51.020;6.764;2023-04-10T03:48:36;6.60;99.90
11838;DHT22;5978;51.020;6.764;2023-04-10T03:51:02;6.60;99.90
11838;DHT22;5978;51.020;6.764;2023-04-10T03:53:27;6.60;99.90
11838;DHT22;5978;51.020;6.764;2023-04-10T03:55:53;6.60;99.90
11838;DHT22;5978;51.020;6.764;2023-04-10T03:58:19;6.60;99.90
11838;DHT22;5978;51.020;6.764;2023-04-10T04:00:45;6.50;99.90
11838;DHT22;5978;51.020;6.764;2023-04-10T04:03:11;6.50;99.90
11838;DHT22;5978;51.020;6.764;2023-04-10T04:05:37;6.60;99.90
11838;DHT22;5978;51.020;6.764;2023-04-10T04:08:03;6.50;99.90
11838;DHT22;5978;51.020;6.764;2023-04-10T04:10:31;6.40;99.90
11838;DHT22;5978;51.020;6.764;2023-04-10T04:12:57;6.40;99.90
11838;DHT22;5978;51.020;6.764;2023-04-10T04:15:22;6.30;99.90
11838;DHT22;5978;51.020;6.764;2023-04-10T04:17:48;6.30;99.90
11838;DHT22;5978;51.020;6.764;2023-04-10T04:20:14;6.30;99.90
11838;DHT22;5978;51.020;6.764;2023-04-10T04:22:40;6.30;99.90
11838;DHT22;5978;51.020;6.764;2023-04-10T04:25:07;6.30;99.90
11838;DHT22;5978;51.020;6.764;2023-04-10T04:27:35;6.30;99.90
11838;DHT22;5978;51.020;6.764;2023-04-10T04:30:02;6.30;99.90
11838;DHT22;5978;51.020;6.764;2023-04-10T04:32:28;6.20;99.90
11838;DHT22;5978;51.020;6.764;2023-04-10T04:34:53;6.20;99.90
11838;DHT22;5978;51.020;6.764;2023-04-10T04:37:19;6.20;99.90
11838;DHT22;5978;51.020;6.764;2023-04-10T04:39:45;6.20;99.90
11838;DHT22;5978;51.020;6.764;2023-04-10T04:42:10;6.20;99.90
11838;DHT22;5978;51.020;6.764;2023-04-10T04:44:36;6.20;99.90
11838;DHT22;5978;51.020;6.764;2023-04-10T04:47:02;6.10;99.90
11838;DHT22;5978;51.020;6.764;2023-04-10T04:49:28;6.10;99.90
11838;DHT22;5978;51.020;6.764;2023-04-10T04:51:53;6.10;99.90
11838;DHT22;5978;51.020;6.764;2023-04-10T04:54:19;6.10;99.90
11838;DHT22;5978;51.020;6.764;2023-04-10T04:56:45;6.10;99.90
11838;DHT22;5978;51.020;6.764;2023-04-10T04:59:11;6.10;99.90
11838;DHT22;5978;51.020;6.764;2023-04-10T05:01:36;6.10;99.90
11838;DHT22;5978;51.020;6.764;2023-04-10T05:04:02;6.20;99.90
11838;DHT22;5978;51.020;6.764;2023-04-10T05:06:28;6.10;99.90
11838;DHT22;5978;51.020;6.764;2023-04-10T05:08:53;6.10;99.90
11838;DHT22;5978;51.020;6.764;2023-04-10T05:11:19;6.10;99.90
11838;DHT22;5978;51.020;6.764;2023-04-10T05:13:45;6.00;99.90
11838;DHT22;5978;51.020;6.764;2023-04-10T05:16:11;6.10;99.90
11838;DHT22;5978;51.020;6.764;2023-04-10T05:18:37;6.20;99.90
11838;DHT22;5978;51.020;6.764;2023-04-10T05:21:02;6.30;99.90
11838;DHT22;5978;51.020;6.764;2023-04-10T05:23:28;6.40;99.90
11838;DHT22;5978;51.020;6.764;2023-04-10T05:25:54;6.40;99.90
11838;DHT22;5978;51.020;6.764;2023-04-10T05:28:19;6.50;99.90
11838;DHT22;5978;51.020;6.764;2023-04-10T05:30:46;6.50;99.90
11838;DHT22;5978;51.020;6.764;2023-04-10T05:33:12;6.60;99.90
11838;DHT22;5978;51.020;6.764;2023-04-10T05:35:38;6.60;99.90
11838;DHT22;5978;51.020;6.764;2023-04-10T05:38:03;6.70;99.90
11838;DHT22;5978;51.020;6.764;2023-04-10T05:40:30;6.70;99.90
11838;DHT22;5978;51.020;6.764;2023-04-10T05:42:56;6.80;99.90
11838;DHT22;5978;51.020;6.764;2023-04-10T05:45:22;6.90;99.90
11838;DHT22;5978;51.020;6.764;2023-04-10T05:47:48;6.90;99.90
11838;DHT22;5978;51.020;6.764;2023-04-10T05:50:14;6.90;99.90
11838;DHT22;5978;51.020;6.764;2023-04-10T05:52:39;7.10;99.90
11838;DHT22;5978;51.020;6.764;2023-04-10T05:55:05;7.10;99.90
11838;DHT22;5978;51.020;6.764;2023-04-10T05:57:31;7.00;99.90
11838;DHT22;5978;51.020;6.764;2023-04-10T05:59:57;7.10;99.90
11838;DHT22;5978;51.020;6.764;2023-04-10T06:02:23;7.20;99.90
11838;DHT22;5978;51.020;6.764;2023-04-10T06:04:50;7.20;99.90
11838;DHT22;5978;51.020;6.764;2023-04-10T06:07:15;7.30;99.90
11838;DHT22;5978;51.020;6.764;2023-04-10T06:09:41;7.40;99.90
11838;DHT22;5978;51.020;6.764;2023-04-10T06:12:07;7.40;99.90
11838;DHT22;5978;51.020;6.764;2023-04-10T06:14:34;7.50;99.90
11838;DHT22;5978;51.020;6.764;2023-04-10T06:16:59;7.50;99.90
11838;DHT22;5978;51.020;6.764;2023-04-10T06:19:26;7.50;99.90
11838;DHT22;5978;51.020;6.764;2023-04-10T06:21:51;7.50;99.90
11838;DHT22;5978;51.020;6.764;2023-04-10T06:24:17;7.60;99.90
11838;DHT22;5978;51.020;6.764;2023-04-10T06:26:42;7.80;99.90
11838;DHT22;5978;51.020;6.764;2023-04-10T06:29:08;8.00;99.90
11838;DHT22;5978;51.020;6.764;2023-04-10T06:31:34;8.20;99.90
11838;DHT22;5978;51.020;6.764;2023-04-10T06:33:59;8.40;99.90
11838;DHT22;5978;51.020;6.764;2023-04-10T06:36:25;8.50;99.90
11838;DHT22;5978;51.020;6.764;2023-04-10T06:38:52;8.70;99.90
11838;DHT22;5978;51.020;6.764;2023-04-10T06:41:17;8.90;99.90
11838;DHT22;5978;51.020;6.764;2023-04-10T06:43:43;9.20;99.90
11838;DHT22;5978;51.020;6.764;2023-04-10T06:46:10;9.30;99.90
11838;DHT22;5978;51.020;6.764;2023-04-10T06:48:36;9.50;99.90
11838;DHT22;5978;51.020;6.764;2023-04-10T06:51:02;9.70;99.90
11838;DHT22;5978;51.020;6.764;2023-04-10T06:53:28;9.90;99.90
11838;DHT22;5978;51.020;6.764;2023-04-10T06:55:55;10.00;99.90
11838;DHT22;5978;51.020;6.764;2023-04-10T06:58:21;10.20;99.90
11838;DHT22;5978;51.020;6.764;2023-04-10T07:00:49;10.40;99.90
11838;DHT22;5978;51.020;6.764;2023-04-10T07:03:15;10.50;99.90
11838;DHT22;5978;51.020;6.764;2023-04-10T07:05:40;10.60;99.90
11838;DHT22;5978;51.020;6.764;2023-04-10T07:08:06;10.80;99.90
11838;DHT22;5978;51.020;6.764;2023-04-10T07:10:33;10.80;99.90
11838;DHT22;5978;51.020;6.764;2023-04-10T07:13:00;10.90;99.90
11838;DHT22;5978;51.020;6.764;2023-04-10T07:15:26;10.90;99.90
11838;DHT22;5978;51.020;6.764;2023-04-10T07:17:52;10.90;99.90
11838;DHT22;5978;51.020;6.764;2023-04-10T07:20:18;10.90;99.90
11838;DHT22;5978;51.020;6.764;2023-04-10T07:22:44;11.00;99.90
11838;DHT22;5978;51.020;6.764;2023-04-10T07:25:10;11.20;99.90
11838;DHT22;5978;51.020;6.764;2023-04-10T07:27:36;11.20;99.90
11838;DHT22;5978;51.020;6.764;2023-04-10T07:30:02;11.20;99.90
11838;DHT22;5978;51.020;6.764;2023-04-10T07:32:29;11.20;99.90
11838;DHT22;5978;51.020;6.764;2023-04-10T07:34:55;11.10;99.90
11838;DHT22;5978;51.020;6.764;2023-04-10T07:37:21;11.10;99.90
11838;DHT22;5978;51.020;6.764;2023-04-10T07:39:47;11.10;99.90
11838;DHT22;5978;51.020;6.764;2023-04-10T07:42:13;11.20;99.90
11838;DHT22;5978;51.020;6.764;2023-04-10T07:44:39;11.20;99.90
11838;DHT22;5978;51.020;6.764;2023-04-10T07:47:05;11.40;99.90
11838;DHT22;5978;51.020;6.764;2023-04-10T07:49:31;11.50;99.90
11838;DHT22;5978;51.020;6.764;2023-04-10T07:51:57;11.50;99.90
11838;DHT22;5978;51.020;6.764;2023-04-10T07:54:23;11.70;99.90
11838;DHT22;5978;51.020;6.764;2023-04-10T07:56:51;11.80;99.90
11838;DHT22;5978;51.020;6.764;2023-04-10T07:59:17;12.00;99.90
11838;DHT22;5978;51.020;6.764;2023-04-10T08:01:43;12.10;99.90
11838;DHT22;5978;51.020;6.764;2023-04-10T08:04:09;12.30;99.90
11838;DHT22;5978;51.020;6.764;2023-04-10T08:06:35;12.40;99.90
11838;DHT22;5978;51.020;6.764;2023-04-10T08:09:01;12.60;99.90
11838;DHT22;5978;51.020;6.764;2023-04-10T08:11:33;12.90;99.90
11838;DHT22;5978;51.020;6.764;2023-04-10T08:14:01;13.00;99.90
11838;DHT22;5978;51.020;6.764;2023-04-10T08:16:32;13.00;99.90
11838;DHT22;5978;51.020;6.764;2023-04-10T08:18:59;13.20;99.90
11838;DHT22;5978;51.020;6.764;2023-04-10T08:21:26;13.40;99.90
11838;DHT22;5978;51.020;6.764;2023-04-10T08:23:54;13.40;99.90
11838;DHT22;5978;51.020;6.764;2023-04-10T08:26:20;13.40;99.90
11838;DHT22;5978;51.020;6.764;2023-04-10T08:28:47;13.40;99.90
11838;DHT22;5978;51.020;6.764;2023-04-10T08:31:19;13.40;99.90
11838;DHT22;5978;51.020;6.764;2023-04-10T08:33:45;13.50;99.90
11838;DHT22;5978;51.020;6.764;2023-04-10T08:36:12;13.50;99.90
11838;DHT22;5978;51.020;6.764;2023-04-10T08:38:40;13.50;99.90
11838;DHT22;5978;51.020;6.764;2023-04-10T08:41:11;13.50;99.90
11838;DHT22;5978;51.020;6.764;2023-04-10T08:43:37;13.60;99.90
11838;DHT22;5978;51.020;6.764;2023-04-10T08:46:03;13.60;99.90
11838;DHT22;5978;51.020;6.764;2023-04-10T08:48:54;13.60;99.90
11838;DHT22;5978;51.020;6.764;2023-04-10T08:51:28;13.50;99.90
11838;DHT22;5978;51.020;6.764;2023-04-10T08:54:00;13.60;99.90
11838;DHT22;5978;51.020;6.764;2023-04-10T08:56:27;13.50;99.90
11838;DHT22;5978;51.020;6.764;2023-04-10T08:58:54;13.60;99.90
11838;DHT22;5978;51.020;6.764;2023-04-10T09:01:20;13.70;99.90
11838;DHT22;5978;51.020;6.764;2023-04-10T09:03:47;13.70;99.90
11838;DHT22;5978;51.020;6.764;2023-04-10T09:06:12;13.80;99.90
11838;DHT22;5978;51.020;6.764;2023-04-10T09:08:38;14.00;99.90
11838;DHT22;5978;51.020;6.764;2023-04-10T09:11:04;14.10;99.90
11838;DHT22;5978;51.020;6.764;2023-04-10T09:13:38;14.30;99.90
11838;DHT22;5978;51.020;6.764;2023-04-10T09:16:04;14.50;99.90
11838;DHT22;5978;51.020;6.764;2023-04-10T09:18:40;14.70;99.90
11838;DHT22;5978;51.020;6.764;2023-04-10T09:21:08;14.80;99.90
11838;DHT22;5978;51.020;6.764;2023-04-10T09:23:34;14.90;97.70
11838;DHT22;5978;51.020;6.764;2023-04-10T09:26:00;15.00;99.90
11838;DHT22;5978;51.020;6.764;2023-04-10T09:28:25;15.20;99.90
11838;DHT22;5978;51.020;6.764;2023-04-10T09:30:51;15.20;96.70
11838;DHT22;5978;51.020;6.764;2023-04-10T09:33:25;15.00;94.20
11838;DHT22;5978;51.020;6.764;2023-04-10T09:35:56;15.10;95.00
11838;DHT22;5978;51.020;6.764;2023-04-10T09:38:25;15.20;94.80
11838;DHT22;5978;51.020;6.764;2023-04-10T09:40:51;15.30;94.70
11838;DHT22;5978;51.020;6.764;2023-04-10T09:43:21;15.30;94.10
11838;DHT22;5978;51.020;6.764;2023-04-10T09:45:54;15.40;94.70
11838;DHT22;5978;51.020;6.764;2023-04-10T09:48:24;15.50;91.70
11838;DHT22;5978;51.020;6.764;2023-04-10T09:50:51;15.40;91.60
11838;DHT22;5978;51.020;6.764;2023-04-10T09:53:19;15.50;90.80
11838;DHT22;5978;51.020;6.764;2023-04-10T09:55:46;15.60;91.90
11838;DHT22;5978;51.020;6.764;2023-04-10T09:58:13;15.70;93.20
11838;DHT22;5978;51.020;6.764;2023-04-10T10:00:43;15.80;91.90
11838;DHT22;5978;51.020;6.764;2023-04-10T10:03:11;16.00;92.50
11838;DHT22;5978;51.020;6.764;2023-04-10T10:05:39;16.10;88.10
11838;DHT22;5978;51.020;6.764;2023-04-10T10:08:07;16.20;86.80
11838;DHT22;5978;51.020;6.764;2023-04-10T10:10:39;16.10;84.80
11838;DHT22;5978;51.020;6.764;2023-04-10T10:13:07;16.20;86.70
11838;DHT22;5978;51.020;6.764;2023-04-10T10:18:17;16.20;85.20
11838;DHT22;5978;51.020;6.764;2023-04-10T10:20:45;16.40;87.30
11838;DHT22;5978;51.020;6.764;2023-04-10T10:23:12;16.50;86.60
11838;DHT22;5978;51.020;6.764;2023-04-10T10:25:40;16.90;89.10
11838;DHT22;5978;51.020;6.764;2023-04-10T10:28:12;17.30;85.80
11838;DHT22;5978;51.020;6.764;2023-04-10T10:30:38;17.40;84.80
11838;DHT22;5978;51.020;6.764;2023-04-10T10:33:05;17.60;81.00
11838;DHT22;5978;51.020;6.764;2023-04-10T10:35:35;17.70;78.80
11838;DHT22;5978;51.020;6.764;2023-04-10T10:38:02;17.70;79.30
11838;DHT22;5978;51.020;6.764;2023-04-10T10:40:32;17.60;78.00
11838;DHT22;5978;51.020;6.764;2023-04-10T10:43:13;17.40;78.00
11838;DHT22;5978;51.020;6.764;2023-04-10T10:46:09;17.50;76.40
11838;DHT22;5978;51.020;6.764;2023-04-10T10:48:35;17.60;75.50
11838;DHT22;5978;51.020;6.764;2023-04-10T10:51:01;17.50;76.80
11838;DHT22;5978;51.020;6.764;2023-04-10T10:58:54;17.60;75.90
11838;DHT22;5978;51.020;6.764;2023-04-10T11:01:22;17.60;76.90
11838;DHT22;5978;51.020;6.764;2023-04-10T11:03:48;17.50;76.10
11838;DHT22;5978;51.020;6.764;2023-04-10T11:06:16;17.40;75.20
11838;DHT22;5978;51.020;6.764;2023-04-10T11:08:47;17.70;76.10
11838;DHT22;5978;51.020;6.764;2023-04-10T11:11:20;18.10;78.40
11838;DHT22;5978;51.020;6.764;2023-04-10T11:19:04;18.00;74.80
11838;DHT22;5978;51.020;6.764;2023-04-10T11:21:31;18.00;74.10
11838;DHT22;5978;51.020;6.764;2023-04-10T11:31:47;17.70;73.80
11838;DHT22;5978;51.020;6.764;2023-04-10T11:34:19;17.80;74.70
11838;DHT22;5978;51.020;6.764;2023-04-10T11:36:45;17.70;73.50
11838;DHT22;5978;51.020;6.764;2023-04-10T11:39:12;17.80;75.70
11838;DHT22;5978;51.020;6.764;2023-04-10T11:41:43;17.90;76.90
11838;DHT22;5978;51.020;6.764;2023-04-10T11:44:16;17.70;72.70
11838;DHT22;5978;51.020;6.764;2023-04-10T11:46:43;17.80;75.50
11838;DHT22;5978;51.020;6.764;2023-04-10T11:49:16;17.80;73.60
11838;DHT22;5978;51.020;6.764;2023-04-10T11:51:45;17.80;74.50
11838;DHT22;5978;51.020;6.764;2023-04-10T11:54:19;17.90;74.60
11838;DHT22;5978;51.020;6.764;2023-04-10T11:57:02;18.10;73.40
11838;DHT22;5978;51.020;6.764;2023-04-10T11:59:33;18.30;72.00
11838;DHT22;5978;51.020;6.764;2023-04-10T12:02:06;18.50;72.40
11838;DHT22;5978;51.020;6.764;2023-04-10T12:04:33;18.50;71.60
11838;DHT22;5978;51.020;6.764;2023-04-10T12:07:05;18.60;71.20
11838;DHT22;5978;51.020;6.764;2023-04-10T12:09:31;18.50;69.70
11838;DHT22;5978;51.020;6.764;2023-04-10T12:12:04;18.70;70.00
11838;DHT22;5978;51.020;6.764;2023-04-10T12:14:40;18.70;69.00
11838;DHT22;5978;51.020;6.764;2023-04-10T12:17:08;18.70;67.40
11838;DHT22;5978;51.020;6.764;2023-04-10T12:19:34;18.70;68.70
11838;DHT22;5978;51.020;6.764;2023-04-10T12:22:00;18.70;67.00
11838;DHT22;5978;51.020;6.764;2023-04-10T12:24:46;19.00;68.90
11838;DHT22;5978;51.020;6.764;2023-04-10T12:27:19;19.10;68.80
11838;DHT22;5978;51.020;6.764;2023-04-10T12:29:47;19.30;68.40
11838;DHT22;5978;51.020;6.764;2023-04-10T12:32:13;19.40;70.10
11838;DHT22;5978;51.020;6.764;2023-04-10T12:34:39;19.60;64.80
11838;DHT22;5978;51.020;6.764;2023-04-10T12:37:05;19.70;60.00
11838;DHT22;5978;51.020;6.764;2023-04-10T12:39:31;20.10;59.50
11838;DHT22;5978;51.020;6.764;2023-04-10T12:42:32;20.60;57.40
11838;DHT22;5978;51.020;6.764;2023-04-10T12:45:04;21.60;56.80
11838;DHT22;5978;51.020;6.764;2023-04-10T12:47:45;22.30;55.50
11838;DHT22;5978;51.020;6.764;2023-04-10T12:50:14;22.10;53.80
11838;DHT22;5978;51.020;6.764;2023-04-10T12:52:43;21.60;53.00
11838;DHT22;5978;51.020;6.764;2023-04-10T12:55:17;21.90;54.30
11838;DHT22;5978;51.020;6.764;2023-04-10T12:57:46;22.20;55.20
11838;DHT22;5978;51.020;6.764;2023-04-10T13:00:19;22.00;54.10
11838;DHT22;5978;51.020;6.764;2023-04-10T13:02:45;21.60;55.00
11838;DHT22;5978;51.020;6.764;2023-04-10T13:05:12;21.40;54.60
11838;DHT22;5978;51.020;6.764;2023-04-10T13:07:39;21.10;53.40
11838;DHT22;5978;51.020;6.764;2023-04-10T13:10:06;20.80;53.60
11838;DHT22;5978;51.020;6.764;2023-04-10T13:12:32;20.60;53.50
11838;DHT22;5978;51.020;6.764;2023-04-10T13:15:00;20.70;54.10
11838;DHT22;5978;51.020;6.764;2023-04-10T13:17:26;20.40;53.60
11838;DHT22;5978;51.020;6.764;2023-04-10T13:19:52;20.40;55.10
11838;DHT22;5978;51.020;6.764;2023-04-10T13:22:18;20.50;55.50
11838;DHT22;5978;51.020;6.764;2023-04-10T13:24:43;20.30;54.40
11838;DHT22;5978;51.020;6.764;2023-04-10T13:27:09;20.30;54.50
11838;DHT22;5978;51.020;6.764;2023-04-10T13:29:36;20.20;55.20
11838;DHT22;5978;51.020;6.764;2023-04-10T13:32:02;20.20;55.70
11838;DHT22;5978;51.020;6.764;2023-04-10T13:34:33;19.90;54.30
11838;DHT22;5978;51.020;6.764;2023-04-10T13:36:59;19.90;55.70
11838;DHT22;5978;51.020;6.764;2023-04-10T13:39:27;19.70;55.90
11838;DHT22;5978;51.020;6.764;2023-04-10T13:41:53;20.00;56.10
11838;DHT22;5978;51.020;6.764;2023-04-10T13:44:19;19.70;52.90
11838;DHT22;5978;51.020;6.764;2023-04-10T13:46:44;19.40;52.70
11838;DHT22;5978;51.020;6.764;2023-04-10T13:49:10;19.10;52.60
11838;DHT22;5978;51.020;6.764;2023-04-10T13:51:36;19.10;53.00
11838;DHT22;5978;51.020;6.764;2023-04-10T13:54:02;19.30;53.10
11838;DHT22;5978;51.020;6.764;2023-04-10T13:56:29;19.80;53.60
11838;DHT22;5978;51.020;6.764;2023-04-10T13:58:55;20.40;52.10
11838;DHT22;5978;51.020;6.764;2023-04-10T14:01:21;20.70;51.90
11838;DHT22;5978;51.020;6.764;2023-04-10T14:03:47;21.00;51.90
11838;DHT22;5978;51.020;6.764;2023-04-10T14:06:12;20.80;51.90
11838;DHT22;5978;51.020;6.764;2023-04-10T14:08:39;20.30;51.70
11838;DHT22;5978;51.020;6.764;2023-04-10T14:11:05;20.20;52.60
11838;DHT22;5978;51.020;6.764;2023-04-10T14:13:31;20.20;52.20
11838;DHT22;5978;51.020;6.764;2023-04-10T14:15:56;20.00;52.50
11838;DHT22;5978;51.020;6.764;2023-04-10T14:18:22;20.10;52.90
11838;DHT22;5978;51.020;6.764;2023-04-10T14:20:48;20.00;52.70
11838;DHT22;5978;51.020;6.764;2023-04-10T14:23:14;19.80;53.30
11838;DHT22;5978;51.020;6.764;2023-04-10T14:25:47;19.60;53.30
11838;DHT22;5978;51.020;6.764;2023-04-10T14:28:14;19.50;54.10
11838;DHT22;5978;51.020;6.764;2023-04-10T14:30:50;19.70;54.20
11838;DHT22;5978;51.020;6.764;2023-04-10T14:33:17;19.70;53.60
11838;DHT22;5978;51.020;6.764;2023-04-10T14:35:44;19.90;54.10
11838;DHT22;5978;51.020;6.764;2023-04-10T14:38:10;20.10;54.50
11838;DHT22;5978;51.020;6.764;2023-04-10T14:40:36;20.20;53.90
11838;DHT22;5978;51.020;6.764;2023-04-10T14:43:02;20.70;53.70
11838;DHT22;5978;51.020;6.764;2023-04-10T14:45:28;21.40;54.00
11838;DHT22;5978;51.020;6.764;2023-04-10T14:47:54;21.70;53.90
11838;DHT22;5978;51.020;6.764;2023-04-10T14:50:20;21.90;53.50
11838;DHT22;5978;51.020;6.764;2023-04-10T14:52:46;21.70;53.30
11838;DHT22;5978;51.020;6.764;2023-04-10T14:55:11;21.40;54.30
11838;DHT22;5978;51.020;6.764;2023-04-10T14:57:37;20.70;53.40
11838;DHT22;5978;51.020;6.764;2023-04-10T15:00:03;20.70;54.90
11838;DHT22;5978;51.020;6.764;2023-04-10T15:02:29;20.30;55.10
11838;DHT22;5978;51.020;6.764;2023-04-10T15:04:56;19.90;55.40
11838;DHT22;5978;51.020;6.764;2023-04-10T15:07:22;19.60;56.70
11838;DHT22;5978;51.020;6.764;2023-04-10T15:09:49;19.40;57.70
11838;DHT22;5978;51.020;6.764;2023-04-10T15:12:15;19.30;57.50
11838;DHT22;5978;51.020;6.764;2023-04-10T15:14:41;19.20;57.90
11838;DHT22;5978;51.020;6.764;2023-04-10T15:17:07;19.30;59.40
11838;DHT22;5978;51.020;6.764;2023-04-10T15:19:32;19.30;59.80
11838;DHT22;5978;51.020;6.764;2023-04-10T15:21:58;19.20;59.60
11838;DHT22;5978;51.020;6.764;2023-04-10T15:24:24;19.00;59.50
11838;DHT22;5978;51.020;6.764;2023-04-10T15:26:50;18.80;60.00
11838;DHT22;5978;51.020;6.764;2023-04-10T15:29:18;18.60;61.40
11838;DHT22;5978;51.020;6.764;2023-04-10T15:31:43;18.40;61.50
11838;DHT22;5978;51.020;6.764;2023-04-10T15:34:09;18.30;62.20
11838;DHT22;5978;51.020;6.764;2023-04-10T15:36:35;18.30;63.40
11838;DHT22;5978;51.020;6.764;2023-04-10T15:39:01;18.30;63.20
11838;DHT22;5978;51.020;6.764;2023-04-10T15:41:29;18.10;63.10
11838;DHT22;5978;51.020;6.764;2023-04-10T15:43:57;18.10;64.70
11838;DHT22;5978;51.020;6.764;2023-04-10T15:46:23;18.10;65.70
11838;DHT22;5978;51.020;6.764;2023-04-10T15:48:49;17.90;64.60
11838;DHT22;5978;51.020;6.764;2023-04-10T15:51:15;17.80;65.00
11838;DHT22;5978;51.020;6.764;2023-04-10T15:53:41;17.80;67.70
11838;DHT22;5978;51.020;6.764;2023-04-10T15:56:07;17.80;69.00
11838;DHT22;5978;51.020;6.764;2023-04-10T15:58:33;17.60;68.20
11838;DHT22;5978;51.020;6.764;2023-04-10T16:00:59;17.50;68.80
11838;DHT22;5978;51.020;6.764;2023-04-10T16:03:25;17.50;69.90
11838;DHT22;5978;51.020;6.764;2023-04-10T16:05:52;17.30;71.80
11838;DHT22;5978;51.020;6.764;2023-04-10T16:08:18;17.10;73.00
11838;DHT22;5978;51.020;6.764;2023-04-10T16:10:44;16.90;80.10
11838;DHT22;5978;51.020;6.764;2023-04-10T16:13:10;16.50;96.20
11838;DHT22;5978;51.020;6.764;2023-04-10T16:15:37;16.00;99.90
11838;DHT22;5978;51.020;6.764;2023-04-10T16:18:04;15.70;99.90
11838;DHT22;5978;51.020;6.764;2023-04-10T16:20:30;15.50;99.90
11838;DHT22;5978;51.020;6.764;2023-04-10T16:22:57;15.30;99.90
11838;DHT22;5978;51.020;6.764;2023-04-10T16:25:23;15.10;99.90
11838;DHT22;5978;51.020;6.764;2023-04-10T16:27:52;15.10;99.90